Terminal Aerodrome Forecast
Issued by NWS

Home | Current Version | Previous Version | Text Only | Print | Product List | Glossary On
Versions: 1 2 3 4 5 6 7 8 9 10 11 12 13 14 15 16 17 18 19 20 21 22 23 24 25 26 27 28 29 30 31 32 33 34 35 36 37 38 39 40
000
FTUS46 KLOX 261300 AAB
TAFSBA
TAF AMD
KSBA 261300Z 2613/2712 VRB03KT 1SM BR OVC003
     FM261500 17006KT 4SM BR OVC007
     FM262100 22007KT P6SM SCT250
     FM270200 VRB03KT P6SM SCT250 WS010/34030KT
     FM270900 VRB03KT P6SM SCT250=

USA.gov is the U.S. government's official web portal to all federal, state and local government web resources and services.